Pagrindinis puslapis
METAR-TAF:

METAR-TAF

Oro uostai :

Jizan, Saudo Arabija

platuma: 16-54N, ilguma: 042-35E, Aukštis: 6 m

Dabartinis oras

Ataskaita buvo paskelbta 36 minutes, ne 15:00 UTC
Vėjas 8 kt iš Vakarų
Temperatūra 33°C
Drėgmė 75%
Slėgis 1006 hPa
Matomumas: 8000 m
Mažai debesys ne aukštis 3000 ft

METAR: OEGN 281500Z 27008KT 8000 FEW030 33/28 Q1006 NOSIG

Laikas: 18:36 (15:36 UTC)

Prognozė

Ataskaita buvo paskelbta 4 valandos ir 36 minutes, ne 11:00 UTC
Prognozė galioja nuo 28 metu 12 UTC su 29 metu 18 UTC
Vėjas 14 kt iš Vakarų/Šiaurės Vakarų
Matomumas: 7000 m
Mažai debesys ne aukštis 3000 ft
Tikimybė 30% :
Laikinai
nuo 28 metu 12 UTC su 28 metu 16 UTC
Išsisklaidę debesys ne aukštis 3000 ft
Mažai debesys ne aukštis 3500 ft, Liūtiniai kamuoliniai debesys.
Tapsmas
nuo 28 metu 18 UTC su 28 metu 20 UTC
Vėjas 3 kt nuo kintamojo kryptimis

TAF: OEGN 281100Z 2812/2918 30014KT 7000 FEW030 PROB30 TEMPO 2812/2816 SCT030 FEW035CB BECMG 2818/2820 VRB03KT

Orai ataskaitas ir orų prognozės (METAR, TAF).

turimą stotys yra geltonos ir raudonos taškus žemėlapyje.

Perkelti pele per norėdami pamatyti stoties vardą.

Tada spustelėkite, norėdami matyti oro stebėjimo ir prognozės.

Norėdami pakeisti žemėlapį: spustelėkite ant žalios mygtukų su juodo kryžiaus žemyn,; žalią mygtuką su brūkšneliu, jei norite nutolinti; arba žalių rodyklių gretimoms žemėlapius.


METAR-TAF: